sensor_id;sensor_type;location;lat;lon;timestamp;P1;durP1;ratioP1;P2;durP2;ratioP2
51758;SDS011;66684;47.568;18.734;2023-04-16T00:00:40;7.25;;;3.25;;
51758;SDS011;66684;47.568;18.734;2023-04-16T00:03:06;3.60;;;2.90;;
51758;SDS011;66684;47.568;18.734;2023-04-16T00:05:32;6.10;;;2.92;;
51758;SDS011;66684;47.568;18.734;2023-04-16T00:07:58;4.18;;;2.87;;
51758;SDS011;66684;47.568;18.734;2023-04-16T00:10:24;4.07;;;3.35;;
51758;SDS011;66684;47.568;18.734;2023-04-16T00:12:50;5.57;;;2.80;;
51758;SDS011;66684;47.568;18.734;2023-04-16T00:15:16;3.67;;;2.87;;
51758;SDS011;66684;47.568;18.734;2023-04-16T00:17:42;3.42;;;2.62;;
51758;SDS011;66684;47.568;18.734;2023-04-16T00:20:07;2.83;;;2.28;;
51758;SDS011;66684;47.568;18.734;2023-04-16T00:22:34;6.20;;;2.60;;
51758;SDS011;66684;47.568;18.734;2023-04-16T00:25:00;3.35;;;2.70;;
51758;SDS011;66684;47.568;18.734;2023-04-16T00:27:26;3.85;;;2.60;;
51758;SDS011;66684;47.568;18.734;2023-04-16T00:29:52;2.97;;;2.40;;
51758;SDS011;66684;47.568;18.734;2023-04-16T00:32:17;3.15;;;2.40;;
51758;SDS011;66684;47.568;18.734;2023-04-16T00:34:43;8.20;;;3.30;;
51758;SDS011;66684;47.568;18.734;2023-04-16T00:37:09;3.20;;;2.30;;
51758;SDS011;66684;47.568;18.734;2023-04-16T00:39:35;3.70;;;2.47;;
51758;SDS011;66684;47.568;18.734;2023-04-16T00:42:01;3.33;;;2.10;;
51758;SDS011;66684;47.568;18.734;2023-04-16T00:44:27;3.47;;;2.20;;
51758;SDS011;66684;47.568;18.734;2023-04-16T00:46:55;2.65;;;2.25;;
51758;SDS011;66684;47.568;18.734;2023-04-16T00:49:22;3.53;;;2.67;;
51758;SDS011;66684;47.568;18.734;2023-04-16T00:51:48;3.28;;;2.50;;
51758;SDS011;66684;47.568;18.734;2023-04-16T00:54:15;4.22;;;2.72;;
51758;SDS011;66684;47.568;18.734;2023-04-16T00:56:41;3.17;;;2.72;;
51758;SDS011;66684;47.568;18.734;2023-04-16T00:59:07;5.65;;;3.15;;
51758;SDS011;66684;47.568;18.734;2023-04-16T01:01:33;4.40;;;3.30;;
51758;SDS011;66684;47.568;18.734;2023-04-16T01:03:59;5.00;;;3.42;;
51758;SDS011;66684;47.568;18.734;2023-04-16T01:06:25;6.20;;;4.28;;
51758;SDS011;66684;47.568;18.734;2023-04-16T01:08:51;6.03;;;4.65;;
51758;SDS011;66684;47.568;18.734;2023-04-16T01:11:17;6.90;;;5.70;;
51758;SDS011;66684;47.568;18.734;2023-04-16T01:13:43;8.60;;;6.32;;
51758;SDS011;66684;47.568;18.734;2023-04-16T01:16:09;9.98;;;7.35;;
51758;SDS011;66684;47.568;18.734;2023-04-16T01:18:36;9.07;;;7.18;;
51758;SDS011;66684;47.568;18.734;2023-04-16T01:21:03;12.45;;;8.93;;
51758;SDS011;66684;47.568;18.734;2023-04-16T01:23:29;12.20;;;10.10;;
51758;SDS011;66684;47.568;18.734;2023-04-16T01:25:56;15.55;;;11.35;;
51758;SDS011;66684;47.568;18.734;2023-04-16T01:28:22;15.98;;;12.13;;
51758;SDS011;66684;47.568;18.734;2023-04-16T01:30:48;17.75;;;12.40;;
51758;SDS011;66684;47.568;18.734;2023-04-16T01:33:14;16.80;;;12.63;;
51758;SDS011;66684;47.568;18.734;2023-04-16T01:35:40;20.30;;;14.77;;
51758;SDS011;66684;47.568;18.734;2023-04-16T01:38:07;20.80;;;15.43;;
51758;SDS011;66684;47.568;18.734;2023-04-16T01:40:34;20.77;;;15.65;;
51758;SDS011;66684;47.568;18.734;2023-04-16T01:43:00;22.77;;;16.70;;
51758;SDS011;66684;47.568;18.734;2023-04-16T01:45:26;23.30;;;16.37;;
51758;SDS011;66684;47.568;18.734;2023-04-16T01:47:52;26.12;;;17.80;;
51758;SDS011;66684;47.568;18.734;2023-04-16T01:50:18;28.02;;;18.12;;
51758;SDS011;66684;47.568;18.734;2023-04-16T01:52:45;30.25;;;18.45;;
51758;SDS011;66684;47.568;18.734;2023-04-16T01:55:12;25.35;;;18.73;;
51758;SDS011;66684;47.568;18.734;2023-04-16T01:57:38;27.15;;;19.62;;
51758;SDS011;66684;47.568;18.734;2023-04-16T02:00:04;28.10;;;21.05;;
51758;SDS011;66684;47.568;18.734;2023-04-16T02:02:30;27.33;;;20.35;;
51758;SDS011;66684;47.568;18.734;2023-04-16T02:04:56;31.62;;;22.30;;
51758;SDS011;66684;47.568;18.734;2023-04-16T02:07:25;33.80;;;23.15;;
51758;SDS011;66684;47.568;18.734;2023-04-16T02:09:52;30.95;;;21.35;;
51758;SDS011;66684;47.568;18.734;2023-04-16T02:12:18;31.33;;;22.37;;
51758;SDS011;66684;47.568;18.734;2023-04-16T02:14:44;32.30;;;21.17;;
51758;SDS011;66684;47.568;18.734;2023-04-16T02:17:10;29.77;;;21.02;;
51758;SDS011;66684;47.568;18.734;2023-04-16T02:19:36;25.75;;;19.62;;
51758;SDS011;66684;47.568;18.734;2023-04-16T02:22:02;27.17;;;20.48;;
51758;SDS011;66684;47.568;18.734;2023-04-16T02:24:28;27.00;;;19.87;;
51758;SDS011;66684;47.568;18.734;2023-04-16T02:26:54;31.25;;;20.45;;
51758;SDS011;66684;47.568;18.734;2023-04-16T02:29:21;24.50;;;18.92;;
51758;SDS011;66684;47.568;18.734;2023-04-16T02:31:47;25.75;;;18.42;;
51758;SDS011;66684;47.568;18.734;2023-04-16T02:34:14;25.88;;;18.77;;
51758;SDS011;66684;47.568;18.734;2023-04-16T02:36:40;25.35;;;19.25;;
51758;SDS011;66684;47.568;18.734;2023-04-16T02:39:06;25.17;;;18.37;;
51758;SDS011;66684;47.568;18.734;2023-04-16T02:41:32;25.70;;;17.50;;
51758;SDS011;66684;47.568;18.734;2023-04-16T02:43:58;22.52;;;16.85;;
51758;SDS011;66684;47.568;18.734;2023-04-16T02:46:24;24.27;;;17.98;;
51758;SDS011;66684;47.568;18.734;2023-04-16T02:48:50;22.00;;;16.27;;
51758;SDS011;66684;47.568;18.734;2023-04-16T02:51:16;20.73;;;16.23;;
51758;SDS011;66684;47.568;18.734;2023-04-16T02:53:41;21.90;;;14.75;;
51758;SDS011;66684;47.568;18.734;2023-04-16T02:56:10;19.95;;;14.80;;
51758;SDS011;66684;47.568;18.734;2023-04-16T02:58:37;18.12;;;14.15;;
51758;SDS011;66684;47.568;18.734;2023-04-16T03:01:03;18.17;;;14.10;;
51758;SDS011;66684;47.568;18.734;2023-04-16T03:03:29;17.17;;;13.32;;
51758;SDS011;66684;47.568;18.734;2023-04-16T03:05:55;16.35;;;12.68;;
51758;SDS011;66684;47.568;18.734;2023-04-16T03:08:21;17.85;;;13.32;;
51758;SDS011;66684;47.568;18.734;2023-04-16T03:10:47;16.12;;;12.75;;
51758;SDS011;66684;47.568;18.734;2023-04-16T03:13:13;17.85;;;12.95;;
51758;SDS011;66684;47.568;18.734;2023-04-16T03:15:39;15.23;;;12.30;;
51758;SDS011;66684;47.568;18.734;2023-04-16T03:18:05;14.00;;;11.82;;
51758;SDS011;66684;47.568;18.734;2023-04-16T03:20:31;16.33;;;12.27;;
51758;SDS011;66684;47.568;18.734;2023-04-16T03:22:56;16.90;;;12.77;;
51758;SDS011;66684;47.568;18.734;2023-04-16T03:25:22;16.55;;;11.85;;
51758;SDS011;66684;47.568;18.734;2023-04-16T03:27:48;15.85;;;11.73;;
51758;SDS011;66684;47.568;18.734;2023-04-16T03:30:14;14.75;;;11.70;;
51758;SDS011;66684;47.568;18.734;2023-04-16T03:32:41;14.10;;;11.23;;
51758;SDS011;66684;47.568;18.734;2023-04-16T03:35:07;14.82;;;11.23;;
51758;SDS011;66684;47.568;18.734;2023-04-16T03:37:33;16.40;;;10.98;;
51758;SDS011;66684;47.568;18.734;2023-04-16T03:40:00;15.80;;;11.70;;
51758;SDS011;66684;47.568;18.734;2023-04-16T03:42:26;14.55;;;11.40;;
51758;SDS011;66684;47.568;18.734;2023-04-16T03:44:52;13.98;;;10.52;;
51758;SDS011;66684;47.568;18.734;2023-04-16T03:47:21;12.88;;;10.45;;
51758;SDS011;66684;47.568;18.734;2023-04-16T03:49:47;12.23;;;10.02;;
51758;SDS011;66684;47.568;18.734;2023-04-16T03:52:13;12.65;;;9.77;;
51758;SDS011;66684;47.568;18.734;2023-04-16T03:54:39;11.68;;;9.35;;
51758;SDS011;66684;47.568;18.734;2023-04-16T03:57:05;13.38;;;9.20;;
51758;SDS011;66684;47.568;18.734;2023-04-16T03:59:30;13.07;;;9.45;;
51758;SDS011;66684;47.568;18.734;2023-04-16T04:01:56;11.32;;;9.45;;
51758;SDS011;66684;47.568;18.734;2023-04-16T04:04:22;12.45;;;9.73;;
51758;SDS011;66684;47.568;18.734;2023-04-16T04:06:48;13.20;;;9.98;;
51758;SDS011;66684;47.568;18.734;2023-04-16T04:09:14;10.05;;;8.52;;
51758;SDS011;66684;47.568;18.734;2023-04-16T04:11:41;11.93;;;9.70;;
51758;SDS011;66684;47.568;18.734;2023-04-16T04:14:07;13.48;;;9.75;;
51758;SDS011;66684;47.568;18.734;2023-04-16T04:16:33;11.93;;;9.23;;
51758;SDS011;66684;47.568;18.734;2023-04-16T04:19:00;12.02;;;9.32;;
51758;SDS011;66684;47.568;18.734;2023-04-16T04:21:26;12.15;;;9.77;;
51758;SDS011;66684;47.568;18.734;2023-04-16T04:23:53;13.55;;;10.15;;
51758;SDS011;66684;47.568;18.734;2023-04-16T04:26:19;13.30;;;10.40;;
51758;SDS011;66684;47.568;18.734;2023-04-16T04:28:45;14.50;;;10.43;;
51758;SDS011;66684;47.568;18.734;2023-04-16T04:31:12;14.10;;;11.43;;
51758;SDS011;66684;47.568;18.734;2023-04-16T04:33:38;17.98;;;11.93;;
51758;SDS011;66684;47.568;18.734;2023-04-16T04:36:04;16.20;;;12.40;;
51758;SDS011;66684;47.568;18.734;2023-04-16T04:38:30;16.52;;;12.65;;
51758;SDS011;66684;47.568;18.734;2023-04-16T04:40:56;16.40;;;12.52;;
51758;SDS011;66684;47.568;18.734;2023-04-16T04:43:22;15.50;;;11.63;;
51758;SDS011;66684;47.568;18.734;2023-04-16T04:45:48;14.87;;;11.65;;
51758;SDS011;66684;47.568;18.734;2023-04-16T04:48:14;16.15;;;11.82;;
51758;SDS011;66684;47.568;18.734;2023-04-16T04:50:40;14.65;;;11.30;;
51758;SDS011;66684;47.568;18.734;2023-04-16T04:53:07;15.68;;;10.55;;
51758;SDS011;66684;47.568;18.734;2023-04-16T04:55:36;11.88;;;9.57;;
51758;SDS011;66684;47.568;18.734;2023-04-16T04:58:03;11.68;;;9.57;;
51758;SDS011;66684;47.568;18.734;2023-04-16T05:00:31;15.48;;;8.75;;
51758;SDS011;66684;47.568;18.734;2023-04-16T05:03:00;12.05;;;8.95;;
51758;SDS011;66684;47.568;18.734;2023-04-16T05:05:27;9.40;;;7.30;;
51758;SDS011;66684;47.568;18.734;2023-04-16T05:07:53;10.57;;;7.90;;
51758;SDS011;66684;47.568;18.734;2023-04-16T05:10:19;26.67;;;20.45;;
51758;SDS011;66684;47.568;18.734;2023-04-16T05:12:48;15.98;;;14.40;;
51758;SDS011;66684;47.568;18.734;2023-04-16T05:15:13;12.25;;;10.43;;
51758;SDS011;66684;47.568;18.734;2023-04-16T05:17:40;18.75;;;16.73;;
51758;SDS011;66684;47.568;18.734;2023-04-16T05:20:06;18.73;;;14.52;;
51758;SDS011;66684;47.568;18.734;2023-04-16T05:22:33;12.10;;;10.57;;
51758;SDS011;66684;47.568;18.734;2023-04-16T05:24:59;13.60;;;10.50;;
51758;SDS011;66684;47.568;18.734;2023-04-16T05:27:25;16.05;;;13.23;;
51758;SDS011;66684;47.568;18.734;2023-04-16T05:29:51;15.55;;;10.75;;
51758;SDS011;66684;47.568;18.734;2023-04-16T05:32:17;15.13;;;12.37;;
51758;SDS011;66684;47.568;18.734;2023-04-16T05:34:43;14.52;;;12.55;;
51758;SDS011;66684;47.568;18.734;2023-04-16T05:37:09;15.70;;;13.18;;
51758;SDS011;66684;47.568;18.734;2023-04-16T05:39:35;12.85;;;11.10;;
51758;SDS011;66684;47.568;18.734;2023-04-16T05:42:01;9.88;;;7.97;;
51758;SDS011;66684;47.568;18.734;2023-04-16T05:44:26;10.05;;;6.85;;
51758;SDS011;66684;47.568;18.734;2023-04-16T05:46:52;9.55;;;6.97;;
51758;SDS011;66684;47.568;18.734;2023-04-16T05:49:18;7.35;;;6.55;;
51758;SDS011;66684;47.568;18.734;2023-04-16T05:51:44;8.60;;;6.78;;
51758;SDS011;66684;47.568;18.734;2023-04-16T05:54:10;10.07;;;8.25;;
51758;SDS011;66684;47.568;18.734;2023-04-16T05:56:36;7.65;;;6.65;;
51758;SDS011;66684;47.568;18.734;2023-04-16T05:59:02;6.70;;;5.85;;
51758;SDS011;66684;47.568;18.734;2023-04-16T06:01:28;7.80;;;6.93;;
51758;SDS011;66684;47.568;18.734;2023-04-16T06:03:54;8.15;;;7.30;;
51758;SDS011;66684;47.568;18.734;2023-04-16T06:06:20;9.55;;;7.95;;
51758;SDS011;66684;47.568;18.734;2023-04-16T06:08:46;9.38;;;8.27;;
51758;SDS011;66684;47.568;18.734;2023-04-16T06:11:12;11.27;;;9.45;;
51758;SDS011;66684;47.568;18.734;2023-04-16T06:13:38;12.37;;;9.85;;
51758;SDS011;66684;47.568;18.734;2023-04-16T06:16:04;13.68;;;11.63;;
51758;SDS011;66684;47.568;18.734;2023-04-16T06:18:30;14.32;;;12.80;;
51758;SDS011;66684;47.568;18.734;2023-04-16T06:20:56;13.20;;;11.00;;
51758;SDS011;66684;47.568;18.734;2023-04-16T06:23:23;14.15;;;11.18;;
51758;SDS011;66684;47.568;18.734;2023-04-16T06:25:49;14.63;;;11.25;;
51758;SDS011;66684;47.568;18.734;2023-04-16T06:28:15;12.60;;;10.68;;
51758;SDS011;66684;47.568;18.734;2023-04-16T06:30:41;12.40;;;10.48;;
51758;SDS011;66684;47.568;18.734;2023-04-16T06:33:07;12.88;;;10.48;;
51758;SDS011;66684;47.568;18.734;2023-04-16T06:35:33;13.48;;;11.20;;
51758;SDS011;66684;47.568;18.734;2023-04-16T06:37:59;12.77;;;10.48;;
51758;SDS011;66684;47.568;18.734;2023-04-16T06:40:25;12.18;;;10.88;;
51758;SDS011;66684;47.568;18.734;2023-04-16T06:42:51;13.75;;;10.27;;
51758;SDS011;66684;47.568;18.734;2023-04-16T06:45:17;10.85;;;9.50;;
51758;SDS011;66684;47.568;18.734;2023-04-16T06:47:42;11.12;;;9.77;;
51758;SDS011;66684;47.568;18.734;2023-04-16T06:50:08;11.07;;;9.52;;
51758;SDS011;66684;47.568;18.734;2023-04-16T06:52:35;12.35;;;9.30;;
51758;SDS011;66684;47.568;18.734;2023-04-16T06:55:01;10.60;;;9.40;;
51758;SDS011;66684;47.568;18.734;2023-04-16T06:57:27;10.88;;;9.13;;
51758;SDS011;66684;47.568;18.734;2023-04-16T06:59:53;10.18;;;8.80;;
51758;SDS011;66684;47.568;18.734;2023-04-16T07:02:19;12.18;;;10.20;;
51758;SDS011;66684;47.568;18.734;2023-04-16T07:04:45;11.60;;;10.02;;
51758;SDS011;66684;47.568;18.734;2023-04-16T07:07:11;13.23;;;10.20;;
51758;SDS011;66684;47.568;18.734;2023-04-16T07:09:36;11.68;;;9.88;;
51758;SDS011;66684;47.568;18.734;2023-04-16T07:12:02;10.73;;;9.50;;
51758;SDS011;66684;47.568;18.734;2023-04-16T07:14:28;9.25;;;8.23;;
51758;SDS011;66684;47.568;18.734;2023-04-16T07:16:54;11.12;;;9.18;;
51758;SDS011;66684;47.568;18.734;2023-04-16T07:19:20;11.02;;;9.68;;
51758;SDS011;66684;47.568;18.734;2023-04-16T07:21:46;12.13;;;9.90;;
51758;SDS011;66684;47.568;18.734;2023-04-16T07:24:12;10.48;;;8.93;;
51758;SDS011;66684;47.568;18.734;2023-04-16T07:26:38;9.77;;;8.70;;
51758;SDS011;66684;47.568;18.734;2023-04-16T07:29:04;11.00;;;8.57;;
51758;SDS011;66684;47.568;18.734;2023-04-16T07:31:30;10.23;;;8.30;;
51758;SDS011;66684;47.568;18.734;2023-04-16T07:33:56;9.85;;;8.23;;
51758;SDS011;66684;47.568;18.734;2023-04-16T07:36:22;13.02;;;9.75;;
51758;SDS011;66684;47.568;18.734;2023-04-16T07:38:48;10.85;;;9.32;;
51758;SDS011;66684;47.568;18.734;2023-04-16T07:41:14;13.05;;;10.82;;
51758;SDS011;66684;47.568;18.734;2023-04-16T07:43:40;16.02;;;11.20;;
51758;SDS011;66684;47.568;18.734;2023-04-16T07:46:06;11.25;;;9.38;;
51758;SDS011;66684;47.568;18.734;2023-04-16T07:48:32;13.15;;;10.82;;
51758;SDS011;66684;47.568;18.734;2023-04-16T07:50:58;14.00;;;10.85;;
51758;SDS011;66684;47.568;18.734;2023-04-16T07:53:24;15.85;;;12.15;;
51758;SDS011;66684;47.568;18.734;2023-04-16T07:55:50;14.65;;;12.02;;
51758;SDS011;66684;47.568;18.734;2023-04-16T07:58:16;16.35;;;12.60;;
51758;SDS011;66684;47.568;18.734;2023-04-16T08:00:42;15.27;;;11.82;;
51758;SDS011;66684;47.568;18.734;2023-04-16T08:03:08;12.82;;;10.00;;
51758;SDS011;66684;47.568;18.734;2023-04-16T08:05:34;12.18;;;9.73;;
51758;SDS011;66684;47.568;18.734;2023-04-16T08:07:59;15.23;;;10.23;;
51758;SDS011;66684;47.568;18.734;2023-04-16T08:10:25;11.50;;;9.35;;
51758;SDS011;66684;47.568;18.734;2023-04-16T08:12:52;10.82;;;8.93;;
51758;SDS011;66684;47.568;18.734;2023-04-16T08:15:18;12.70;;;10.13;;
51758;SDS011;66684;47.568;18.734;2023-04-16T08:17:44;13.43;;;9.63;;
51758;SDS011;66684;47.568;18.734;2023-04-16T08:20:10;11.55;;;8.57;;
51758;SDS011;66684;47.568;18.734;2023-04-16T08:22:36;10.75;;;8.45;;
51758;SDS011;66684;47.568;18.734;2023-04-16T08:25:02;10.60;;;8.30;;
51758;SDS011;66684;47.568;18.734;2023-04-16T08:27:28;10.32;;;8.05;;
51758;SDS011;66684;47.568;18.734;2023-04-16T08:29:54;10.65;;;7.85;;
51758;SDS011;66684;47.568;18.734;2023-04-16T08:32:20;10.02;;;7.78;;
51758;SDS011;66684;47.568;18.734;2023-04-16T08:34:46;9.65;;;7.47;;
51758;SDS011;66684;47.568;18.734;2023-04-16T08:37:12;7.93;;;6.45;;
51758;SDS011;66684;47.568;18.734;2023-04-16T08:39:38;9.45;;;6.75;;
51758;SDS011;66684;47.568;18.734;2023-04-16T08:42:04;7.20;;;5.80;;
51758;SDS011;66684;47.568;18.734;2023-04-16T08:44:32;7.07;;;5.75;;
51758;SDS011;66684;47.568;18.734;2023-04-16T08:47:01;8.10;;;4.70;;
51758;SDS011;66684;47.568;18.734;2023-04-16T08:49:27;6.85;;;4.95;;
51758;SDS011;66684;47.568;18.734;2023-04-16T08:51:54;5.50;;;4.87;;
51758;SDS011;66684;47.568;18.734;2023-04-16T08:54:30;6.50;;;4.45;;
51758;SDS011;66684;47.568;18.734;2023-04-16T08:56:59;6.18;;;4.70;;
51758;SDS011;66684;47.568;18.734;2023-04-16T08:59:26;5.18;;;4.20;;
51758;SDS011;66684;47.568;18.734;2023-04-16T09:01:57;8.07;;;4.47;;
51758;SDS011;66684;47.568;18.734;2023-04-16T09:04:27;6.87;;;4.70;;
51758;SDS011;66684;47.568;18.734;2023-04-16T09:06:57;7.22;;;3.90;;
51758;SDS011;66684;47.568;18.734;2023-04-16T09:09:26;5.40;;;3.80;;
51758;SDS011;66684;47.568;18.734;2023-04-16T09:11:53;6.47;;;3.78;;
51758;SDS011;66684;47.568;18.734;2023-04-16T09:14:19;6.12;;;3.08;;
51758;SDS011;66684;47.568;18.734;2023-04-16T09:16:45;6.05;;;4.05;;
51758;SDS011;66684;47.568;18.734;2023-04-16T09:19:13;4.60;;;3.50;;
51758;SDS011;66684;47.568;18.734;2023-04-16T09:21:39;4.18;;;3.20;;
51758;SDS011;66684;47.568;18.734;2023-04-16T09:24:07;3.55;;;2.70;;
51758;SDS011;66684;47.568;18.734;2023-04-16T09:26:34;4.10;;;2.70;;
51758;SDS011;66684;47.568;18.734;2023-04-16T09:29:01;4.95;;;2.70;;
51758;SDS011;66684;47.568;18.734;2023-04-16T09:31:27;4.57;;;3.40;;
51758;SDS011;66684;47.568;18.734;2023-04-16T09:36:26;4.00;;;3.10;;
51758;SDS011;66684;47.568;18.734;2023-04-16T09:38:53;4.80;;;2.67;;
51758;SDS011;66684;47.568;18.734;2023-04-16T09:41:29;4.87;;;2.72;;
51758;SDS011;66684;47.568;18.734;2023-04-16T09:43:57;4.72;;;3.00;;
51758;SDS011;66684;47.568;18.734;2023-04-16T09:46:28;4.37;;;2.92;;
51758;SDS011;66684;47.568;18.734;2023-04-16T09:48:57;5.47;;;3.03;;
51758;SDS011;66684;47.568;18.734;2023-04-16T09:51:23;3.75;;;2.20;;
51758;SDS011;66684;47.568;18.734;2023-04-16T09:53:51;4.87;;;2.70;;
51758;SDS011;66684;47.568;18.734;2023-04-16T09:56:22;4.12;;;2.70;;
51758;SDS011;66684;47.568;18.734;2023-04-16T09:58:55;3.85;;;2.78;;
51758;SDS011;66684;47.568;18.734;2023-04-16T10:01:22;4.20;;;2.25;;
51758;SDS011;66684;47.568;18.734;2023-04-16T10:03:49;4.32;;;2.40;;
51758;SDS011;66684;47.568;18.734;2023-04-16T10:06:16;4.70;;;2.03;;
51758;SDS011;66684;47.568;18.734;2023-04-16T10:11:16;4.28;;;2.30;;
51758;SDS011;66684;47.568;18.734;2023-04-16T10:13:43;4.30;;;2.33;;
51758;SDS011;66684;47.568;18.734;2023-04-16T10:16:09;4.28;;;2.40;;
51758;SDS011;66684;47.568;18.734;2023-04-16T10:18:36;3.78;;;2.37;;
51758;SDS011;66684;47.568;18.734;2023-04-16T10:21:04;4.37;;;2.22;;
51758;SDS011;66684;47.568;18.734;2023-04-16T10:23:31;5.65;;;2.10;;
51758;SDS011;66684;47.568;18.734;2023-04-16T10:25:58;3.70;;;2.08;;
51758;SDS011;66684;47.568;18.734;2023-04-16T10:28:24;3.75;;;2.25;;
51758;SDS011;66684;47.568;18.734;2023-04-16T10:30:51;2.85;;;1.80;;
51758;SDS011;66684;47.568;18.734;2023-04-16T10:33:22;4.70;;;1.92;;
51758;SDS011;66684;47.568;18.734;2023-04-16T10:35:50;5.53;;;1.80;;
51758;SDS011;66684;47.568;18.734;2023-04-16T10:38:20;3.00;;;2.00;;
51758;SDS011;66684;47.568;18.734;2023-04-16T10:40:59;4.90;;;1.65;;
51758;SDS011;66684;47.568;18.734;2023-04-16T10:43:27;3.53;;;2.00;;
51758;SDS011;66684;47.568;18.734;2023-04-16T10:45:55;4.25;;;1.80;;
51758;SDS011;66684;47.568;18.734;2023-04-16T10:48:22;2.87;;;1.58;;
51758;SDS011;66684;47.568;18.734;2023-04-16T10:50:56;3.50;;;1.90;;
51758;SDS011;66684;47.568;18.734;2023-04-16T10:53:23;1.75;;;0.95;;
51758;SDS011;66684;47.568;18.734;2023-04-16T10:58:29;2.87;;;0.93;;
51758;SDS011;66684;47.568;18.734;2023-04-16T11:01:00;4.28;;;0.70;;
51758;SDS011;66684;47.568;18.734;2023-04-16T11:03:30;3.80;;;1.00;;
51758;SDS011;66684;47.568;18.734;2023-04-16T11:06:10;2.92;;;1.30;;
51758;SDS011;66684;47.568;18.734;2023-04-16T11:08:37;2.25;;;0.30;;
51758;SDS011;66684;47.568;18.734;2023-04-16T11:11:04;0.90;;;0.20;;
51758;SDS011;66684;47.568;18.734;2023-04-16T11:13:30;1.55;;;0.30;;
51758;SDS011;66684;47.568;18.734;2023-04-16T11:15:56;1.37;;;0.30;;
51758;SDS011;66684;47.568;18.734;2023-04-16T11:18:23;0.93;;;0.20;;
51758;SDS011;66684;47.568;18.734;2023-04-16T11:20:49;2.00;;;0.40;;
51758;SDS011;66684;47.568;18.734;2023-04-16T11:23:15;5.05;;;0.28;;
51758;SDS011;66684;47.568;18.734;2023-04-16T11:25:41;0.95;;;0.20;;
51758;SDS011;66684;47.568;18.734;2023-04-16T11:28:07;1.23;;;0.28;;
51758;SDS011;66684;47.568;18.734;2023-04-16T11:30:34;1.23;;;0.30;;
51758;SDS011;66684;47.568;18.734;2023-04-16T11:33:01;1.02;;;0.25;;
51758;SDS011;66684;47.568;18.734;2023-04-16T11:38:00;0.70;;;0.30;;
51758;SDS011;66684;47.568;18.734;2023-04-16T11:40:29;2.00;;;0.30;;
51758;SDS011;66684;47.568;18.734;2023-04-16T11:43:01;2.58;;;0.37;;
51758;SDS011;66684;47.568;18.734;2023-04-16T11:45:40;1.65;;;0.30;;
51758;SDS011;66684;47.568;18.734;2023-04-16T11:48:25;1.42;;;0.20;;
51758;SDS011;66684;47.568;18.734;2023-04-16T11:51:11;1.20;;;0.20;;
51758;SDS011;66684;47.568;18.734;2023-04-16T11:53:43;4.37;;;0.25;;
51758;SDS011;66684;47.568;18.734;2023-04-16T11:56:12;2.12;;;0.50;;
51758;SDS011;66684;47.568;18.734;2023-04-16T11:58:38;1.60;;;0.30;;
51758;SDS011;66684;47.568;18.734;2023-04-16T12:01:05;3.80;;;0.40;;
51758;SDS011;66684;47.568;18.734;2023-04-16T12:03:40;1.05;;;0.30;;
51758;SDS011;66684;47.568;18.734;2023-04-16T12:06:11;1.02;;;0.20;;
51758;SDS011;66684;47.568;18.734;2023-04-16T12:08:37;3.90;;;0.25;;
51758;SDS011;66684;47.568;18.734;2023-04-16T12:11:02;1.65;;;0.37;;
51758;SDS011;66684;47.568;18.734;2023-04-16T12:13:29;1.33;;;0.30;;
51758;SDS011;66684;47.568;18.734;2023-04-16T12:15:55;1.52;;;0.20;;
51758;SDS011;66684;47.568;18.734;2023-04-16T12:18:22;1.62;;;0.40;;
51758;SDS011;66684;47.568;18.734;2023-04-16T12:20:51;1.45;;;0.28;;
51758;SDS011;66684;47.568;18.734;2023-04-16T12:23:29;1.40;;;0.25;;
51758;SDS011;66684;47.568;18.734;2023-04-16T12:25:57;1.10;;;0.40;;
51758;SDS011;66684;47.568;18.734;2023-04-16T12:28:35;1.80;;;0.22;;
51758;SDS011;66684;47.568;18.734;2023-04-16T12:31:03;0.90;;;0.30;;
51758;SDS011;66684;47.568;18.734;2023-04-16T12:33:29;2.72;;;0.30;;
51758;SDS011;66684;47.568;18.734;2023-04-16T12:35:55;0.55;;;0.20;;
51758;SDS011;66684;47.568;18.734;2023-04-16T12:38:21;2.55;;;0.50;;
51758;SDS011;66684;47.568;18.734;2023-04-16T12:40:47;1.15;;;0.37;;
51758;SDS011;66684;47.568;18.734;2023-04-16T12:43:13;1.23;;;0.40;;
51758;SDS011;66684;47.568;18.734;2023-04-16T12:45:39;7.93;;;3.85;;
51758;SDS011;66684;47.568;18.734;2023-04-16T12:48:05;2.50;;;0.62;;
51758;SDS011;66684;47.568;18.734;2023-04-16T12:50:31;4.78;;;0.62;;
51758;SDS011;66684;47.568;18.734;2023-04-16T12:52:58;10.10;;;3.95;;
51758;SDS011;66684;47.568;18.734;2023-04-16T12:55:24;4.68;;;1.15;;
51758;SDS011;66684;47.568;18.734;2023-04-16T12:57:50;1.40;;;0.60;;
51758;SDS011;66684;47.568;18.734;2023-04-16T13:00:18;12.07;;;4.00;;
51758;SDS011;66684;47.568;18.734;2023-04-16T13:02:44;2.15;;;0.30;;
51758;SDS011;66684;47.568;18.734;2023-04-16T13:05:10;2.45;;;0.40;;
51758;SDS011;66684;47.568;18.734;2023-04-16T13:07:37;1.60;;;0.30;;
51758;SDS011;66684;47.568;18.734;2023-04-16T13:10:04;1.33;;;0.30;;
51758;SDS011;66684;47.568;18.734;2023-04-16T13:12:30;0.98;;;0.30;;
51758;SDS011;66684;47.568;18.734;2023-04-16T13:14:57;5.40;;;0.40;;
51758;SDS011;66684;47.568;18.734;2023-04-16T13:17:23;2.15;;;0.30;;
51758;SDS011;66684;47.568;18.734;2023-04-16T13:19:49;1.62;;;0.20;;
51758;SDS011;66684;47.568;18.734;2023-04-16T13:22:15;1.02;;;0.30;;
51758;SDS011;66684;47.568;18.734;2023-04-16T13:24:41;0.93;;;0.30;;
51758;SDS011;66684;47.568;18.734;2023-04-16T13:27:08;1.12;;;0.30;;
51758;SDS011;66684;47.568;18.734;2023-04-16T13:29:34;1.10;;;0.20;;
51758;SDS011;66684;47.568;18.734;2023-04-16T13:32:03;1.80;;;0.30;;
51758;SDS011;66684;47.568;18.734;2023-04-16T13:34:29;1.62;;;0.30;;
51758;SDS011;66684;47.568;18.734;2023-04-16T13:36:55;1.75;;;0.35;;
51758;SDS011;66684;47.568;18.734;2023-04-16T13:39:21;1.98;;;0.40;;
51758;SDS011;66684;47.568;18.734;2023-04-16T13:41:46;3.53;;;0.40;;
51758;SDS011;66684;47.568;18.734;2023-04-16T13:44:15;2.97;;;0.50;;
51758;SDS011;66684;47.568;18.734;2023-04-16T13:46:41;3.00;;;0.37;;
51758;SDS011;66684;47.568;18.734;2023-04-16T13:49:12;0.95;;;0.30;;
51758;SDS011;66684;47.568;18.734;2023-04-16T13:51:38;1.27;;;0.28;;
51758;SDS011;66684;47.568;18.734;2023-04-16T13:54:06;0.40;;;0.20;;
51758;SDS011;66684;47.568;18.734;2023-04-16T13:56:32;3.62;;;0.40;;
51758;SDS011;66684;47.568;18.734;2023-04-16T13:58:57;1.20;;;0.30;;
51758;SDS011;66684;47.568;18.734;2023-04-16T14:01:23;2.65;;;0.40;;
51758;SDS011;66684;47.568;18.734;2023-04-16T14:03:49;4.65;;;0.30;;
51758;SDS011;66684;47.568;18.734;2023-04-16T14:06:15;1.48;;;0.30;;
51758;SDS011;66684;47.568;18.734;2023-04-16T14:08:42;2.87;;;0.30;;
51758;SDS011;66684;47.568;18.734;2023-04-16T14:11:09;3.28;;;0.40;;
51758;SDS011;66684;47.568;18.734;2023-04-16T14:13:36;5.18;;;0.73;;
51758;SDS011;66684;47.568;18.734;2023-04-16T14:16:01;2.08;;;0.30;;
51758;SDS011;66684;47.568;18.734;2023-04-16T14:18:28;2.33;;;0.68;;
51758;SDS011;66684;47.568;18.734;2023-04-16T14:20:54;2.58;;;0.40;;
51758;SDS011;66684;47.568;18.734;2023-04-16T14:23:20;1.23;;;0.30;;
51758;SDS011;66684;47.568;18.734;2023-04-16T14:25:46;1.05;;;0.32;;
51758;SDS011;66684;47.568;18.734;2023-04-16T14:28:12;1.45;;;0.45;;
51758;SDS011;66684;47.568;18.734;2023-04-16T14:30:38;1.02;;;0.20;;